Crystal — WDJ2406 — position and weather

sailwx.info

Track history (hours):
 
Tides and Currents Weather Stations Pressure Air Temp Water Temp Dewpoint Dewpoint Depression Visibility Wind Speed Wind Dir Waves Ship Positions

Crystal

Owner: Open Oceans LLC, San Diego, CA. More information available from US FCC via Universal Licensing System and Coast Guard Vessel Documentation Center.

Last reported at 2017-Sep-20 17:07 UTC. Time now 2017-Sep-25 15:08 UTC.
Position N 32°39' W 117°07'.

MMSI: 369197000.

Date/timePositionNaut miles runAvg speedWind from/ knotsBaromVisibWave heightAir tempDewpointWater temp
2017-Sep-20 17:07N 32°39' W 117°07'0 0.0
2017-Sep-20 16:54N 32°39' W 117°07'0 0.0
2017-Sep-20 15:11N 32°39' W 117°07'0 0.0
2017-Sep-20 14:51N 32°39' W 117°07'0 0.0
2017-Sep-20 13:12N 32°39' W 117°07'0 0.0
2017-Sep-20 12:57N 32°39' W 117°07'0 0.0
2017-Sep-20 12:09N 32°39' W 117°07'0 0.0
2017-Sep-20 11:58N 32°39' W 117°07'0 0.0
2017-Sep-20 11:30N 32°39' W 117°07'0 0.0
2017-Sep-20 10:53N 32°39' W 117°07'0 0.0
2017-Sep-20 10:03N 32°39' W 117°07'0 0.0
2017-Sep-20 09:37N 32°39' W 117°07'0 0.0
2017-Sep-20 09:14N 32°39' W 117°07'0 0.0
2017-Sep-20 09:00N 32°39' W 117°07'0 0.0
2017-Sep-20 08:07N 32°39' W 117°07'0 0.0
2017-Sep-20 07:59N 32°39' W 117°07'0 0.0
2017-Sep-20 07:30N 32°39' W 117°07'0 0.0
2017-Sep-20 06:57N 32°39' W 117°07'0 0.0
2017-Sep-20 06:27N 32°39' W 117°07'0 0.0
2017-Sep-20 05:11N 32°39' W 117°07'0 0.0
2017-Sep-20 04:57N 32°39' W 117°07'0 0.0
2017-Sep-20 04:28N 32°39' W 117°07'0 0.0
2017-Sep-20 03:58N 32°39' W 117°07'0 0.0
2017-Sep-20 03:30N 32°39' W 117°07'0 0.0
2017-Sep-20 02:52N 32°39' W 117°07'0 0.0
2017-Sep-19 23:46N 32°39' W 117°07'0 0.0
2017-Sep-19 23:28N 32°39' W 117°07'0 0.0
2017-Sep-19 22:55N 32°39' W 117°07'0 0.0
2017-Sep-19 19:46N 32°39' W 117°07'0 0.0
2017-Sep-19 19:29N 32°39' W 117°07'0 0.0
2017-Sep-19 17:52N 32°39' W 117°07'0 0.0
2017-Sep-19 17:27N 32°39' W 117°07'5 4.8
2017-Sep-19 16:22N 32°43' W 117°12'2 0.0
2017-Sep-18 02:56N 32°43' W 117°13'0 0.0
2017-Sep-18 02:30N 32°43' W 117°13'0 0.0
2017-Sep-18 02:00N 32°43' W 117°13'4 8.3
2017-Sep-18 01:31N 32°39' W 117°14'610.9
2017-Sep-18 00:55N 32°33' W 117°17'14 1.2
2017-Sep-17 12:53N 32°36' W 117°33'2 6.5
2017-Sep-17 12:30N 32°36' W 117°30'510.1
2017-Sep-17 12:00N 32°37' W 117°24'510.8
2017-Sep-17 11:30N 32°37' W 117°18'5 9.5
2017-Sep-17 11:00N 32°41' W 117°14'3 5.7
2017-Sep-17 10:30N 32°43' W 117°13'0 0.0
2017-Sep-17 10:00N 32°43' W 117°13'0 0.0
2017-Sep-17 09:30N 32°43' W 117°13'0 0.0
2017-Sep-17 09:00N 32°43' W 117°13'0 0.0
2017-Sep-17 08:30N 32°43' W 117°13'0 0.0
2017-Sep-17 08:00N 32°43' W 117°13'0 0.0
2017-Sep-17 07:30N 32°43' W 117°13'0 0.0
2017-Sep-17 07:00N 32°43' W 117°13'0 0.0
2017-Sep-17 06:30N 32°43' W 117°13'0 0.0
2017-Sep-17 06:00N 32°43' W 117°13'0 0.0
2017-Sep-17 05:30N 32°43' W 117°13'0 0.0
2017-Sep-17 05:00N 32°43' W 117°13'0 0.0
2017-Sep-17 04:30N 32°43' W 117°13'0 0.0
2017-Sep-17 04:00N 32°43' W 117°13'1 1.1
2017-Sep-17 03:30N 32°43' W 117°13'6 9.9
2017-Sep-17 02:55N 32°38' W 117°16'511.2
2017-Sep-17 02:30N 32°37' W 117°22'611.2
2017-Sep-17 02:01N 32°36' W 117°28'5 9.9
2017-Sep-17 01:30N 32°36' W 117°34'4 7.7
2017-Sep-17 01:00N 32°35' W 117°39'2 3.7
2017-Sep-17 00:30N 32°33' W 117°38'4 7.2
2017-Sep-17 00:01N 32°34' W 117°34'3 5.3
2017-Sep-16 23:30N 32°36' W 117°35'4 8.5
2017-Sep-16 23:00N 32°37' W 117°40'4 8.1
2017-Sep-16 22:30N 32°38' W 117°45'2 4.9
2017-Sep-16 22:01N 32°37' W 117°42'1 1.7
2017-Sep-16 21:30N 32°38' W 117°42'1 1.7
2017-Sep-16 21:00N 32°38' W 117°41'1 3.0
2017-Sep-16 20:30N 32°38' W 117°39'2 3.5
2017-Sep-16 20:00N 32°40' W 117°40'3 5.9
2017-Sep-16 19:31N 32°37' W 117°42'3 5.8
2017-Sep-16 19:00N 32°35' W 117°39'2 3.2
2017-Sep-16 18:30N 32°35' W 117°37'2 4.3
2017-Sep-16 18:01N 32°37' W 117°37'2 4.1
2017-Sep-16 17:31N 32°38' W 117°34'3 6.8
2017-Sep-16 17:01N 32°38' W 117°38'2 3.6
2017-Sep-16 16:30N 32°37' W 117°37'3 6.1
2017-Sep-16 16:00N 32°34' W 117°39'3 4.9
2017-Sep-16 15:30N 32°36' W 117°41'2 4.0
2017-Sep-16 15:00N 32°37' W 117°39'1 2.8
2017-Sep-16 14:30N 32°36' W 117°37'0 0.7
2017-Sep-16 14:00N 32°36' W 117°38'1 2.2
2017-Sep-16 13:30N 32°37' W 117°37'4 8.4
2017-Sep-16 13:00N 32°36' W 117°33'510.7
2017-Sep-16 12:31N 32°36' W 117°26'611.1
2017-Sep-16 12:01N 32°37' W 117°20'510.8
2017-Sep-16 11:31N 32°39' W 117°14'3 5.2
2017-Sep-16 11:00N 32°42' W 117°14'2 3.6
2017-Sep-16 10:30N 32°43' W 117°13'0 0.0
2017-Sep-16 10:00N 32°43' W 117°13'0 0.0
2017-Sep-16 09:30N 32°43' W 117°13'0 0.0
2017-Sep-16 09:01N 32°43' W 117°13'0 0.0
2017-Sep-16 08:30N 32°43' W 117°13'0 0.0
2017-Sep-16 08:00N 32°43' W 117°13'0 0.0
2017-Sep-16 07:30N 32°43' W 117°13'0 0.0
2017-Sep-16 06:58N 32°43' W 117°13'0 0.0
2017-Sep-16 06:30N 32°43' W 117°13'0 0.0
2017-Sep-16 06:01N 32°43' W 117°13'0 0.0
2017-Sep-16 05:29N 32°43' W 117°13'0 0.0
2017-Sep-16 04:59N 32°43' W 117°13'0 0.0
2017-Sep-16 04:30N 32°43' W 117°13'0 0.0
2017-Sep-16 03:58N 32°43' W 117°13'0 0.0
2017-Sep-16 03:30N 32°43' W 117°13'0 0.0
2017-Sep-16 03:00N 32°43' W 117°13'0 0.0
2017-Sep-16 02:29N 32°43' W 117°13'0 0.0
2017-Sep-16 01:54N 32°43' W 117°13'0 0.0
2017-Sep-16 01:19N 32°43' W 117°13'0 0.0
2017-Sep-16 00:58N 32°43' W 117°13'0 0.0
2017-Sep-16 00:26N 32°43' W 117°13'0 0.0
2017-Sep-15 19:59N 32°43' W 117°13'0 0.0
2017-Sep-15 18:18N 32°43' W 117°13'0 0.0
2017-Sep-15 17:59N 32°43' W 117°13'0 0.0
2017-Sep-15 17:30N 32°43' W 117°13'0 0.0
2017-Sep-15 16:55N 32°43' W 117°13'0 0.0
2017-Sep-15 16:31N 32°43' W 117°13'0 0.0
2017-Sep-15 16:00N 32°43' W 117°13'0 0.0
2017-Sep-15 15:30N 32°43' W 117°13'0 0.0
2017-Sep-15 15:01N 32°43' W 117°13'0 0.0
2017-Sep-15 14:30N 32°43' W 117°13'0 0.0
2017-Sep-15 14:00N 32°43' W 117°13'0 0.0
2017-Sep-15 13:30N 32°43' W 117°13'0 0.0
2017-Sep-15 13:00N 32°43' W 117°13'0 0.0
2017-Sep-15 12:30N 32°43' W 117°13'0 0.0
2017-Sep-15 12:00N 32°43' W 117°13'0 0.0
2017-Sep-15 11:31N 32°43' W 117°13'0 0.0
2017-Sep-15 10:58N 32°43' W 117°13'0 0.0
2017-Sep-15 10:30N 32°43' W 117°13'0 0.0
2017-Sep-15 09:59N 32°43' W 117°13'0 0.0
2017-Sep-15 09:31N 32°43' W 117°13'0 0.0
2017-Sep-15 09:00N 32°43' W 117°13'0 0.0
2017-Sep-15 08:30N 32°43' W 117°13'0 0.0
2017-Sep-15 07:59N 32°43' W 117°13'0 0.0
2017-Sep-15 07:28N 32°43' W 117°13'0 0.0
2017-Sep-15 06:59N 32°43' W 117°13'0 0.0
2017-Sep-15 06:27N 32°43' W 117°13'0 0.0
2017-Sep-15 06:00N 32°43' W 117°13'0 0.0
2017-Sep-15 05:28N 32°43' W 117°13'0 0.0
2017-Sep-15 05:00N 32°43' W 117°13'0 0.0
2017-Sep-15 04:31N 32°43' W 117°13'0 0.0
2017-Sep-15 03:59N 32°43' W 117°13'0 0.0
2017-Sep-15 03:30N 32°43' W 117°13'0 0.0
2017-Sep-15 03:00N 32°43' W 117°13'0 0.0
2017-Sep-15 02:27N 32°43' W 117°13'0 0.0
2017-Sep-15 02:00N 32°43' W 117°13'0 0.0
2017-Sep-15 01:30N 32°43' W 117°13'0 0.0
2017-Sep-15 00:58N 32°43' W 117°13'0 0.0
2017-Sep-15 00:30N 32°43' W 117°13'0 0.0
2017-Sep-15 00:00N 32°43' W 117°13'0 0.0
2017-Sep-14 23:28N 32°43' W 117°13'0 0.0
2017-Sep-14 22:54N 32°43' W 117°13'0 0.0
2017-Sep-14 22:27N 32°43' W 117°13'0 0.0
2017-Sep-14 21:59N 32°43' W 117°13'0 0.0
2017-Sep-14 21:27N 32°43' W 117°13'0 0.0
2017-Sep-14 21:00N 32°43' W 117°13'0 0.0
2017-Sep-14 20:27N 32°43' W 117°13'0 0.0
2017-Sep-14 20:00N 32°43' W 117°13'0 0.0
2017-Sep-14 19:30N 32°43' W 117°13'0 0.0
2017-Sep-14 18:59N 32°43' W 117°13'0 0.0
2017-Sep-14 18:30N 32°43' W 117°13'0 0.0
2017-Sep-14 17:59N 32°43' W 117°13'0 0.0
2017-Sep-14 17:30N 32°43' W 117°13'0 0.0
2017-Sep-14 17:00N 32°43' W 117°13'0 0.0
2017-Sep-14 16:29N 32°43' W 117°13'0 0.0
2017-Sep-14 16:00N 32°43' W 117°13'0 0.0
2017-Sep-14 15:29N 32°43' W 117°13'0 0.0
2017-Sep-14 15:00N 32°43' W 117°13'0 0.0
2017-Sep-14 14:30N 32°43' W 117°13'0 0.0
2017-Sep-14 14:01N 32°43' W 117°13'0 0.0
2017-Sep-14 13:31N 32°43' W 117°13'0 0.0
2017-Sep-14 13:01N 32°43' W 117°13'0 0.0
2017-Sep-14 12:30N 32°43' W 117°13'0 0.0
2017-Sep-14 12:00N 32°43' W 117°13'0 0.0
2017-Sep-14 11:30N 32°43' W 117°13'0 0.0
2017-Sep-14 11:01N 32°43' W 117°13'0 0.0
2017-Sep-14 10:30N 32°43' W 117°13'0 0.0
2017-Sep-14 10:00N 32°43' W 117°13'0 0.0
2017-Sep-14 09:31N 32°43' W 117°13'0 0.0
2017-Sep-14 08:59N 32°43' W 117°13'0 0.0
2017-Sep-14 08:24N 32°43' W 117°13'0 0.0
2017-Sep-14 07:59N 32°43' W 117°13'0 0.0
2017-Sep-14 07:30N 32°43' W 117°13'0 0.0
2017-Sep-14 07:00N 32°43' W 117°13'0 0.0
2017-Sep-14 06:28N 32°43' W 117°13'0 0.0
2017-Sep-14 06:01N 32°43' W 117°13'0 0.0
2017-Sep-14 05:30N 32°43' W 117°13'0 0.0
2017-Sep-14 04:58N 32°43' W 117°13'0 0.0
2017-Sep-14 04:27N 32°43' W 117°13'0 0.0
2017-Sep-14 04:00N 32°43' W 117°13'0 0.0
2017-Sep-14 03:27N 32°43' W 117°13'0 0.0
2017-Sep-14 03:01N 32°43' W 117°13'0 0.0
2017-Sep-14 02:27N 32°43' W 117°13'0 0.0
2017-Sep-14 02:00N 32°43' W 117°13'0 0.0
2017-Sep-14 01:30N 32°43' W 117°13'0 0.0
2017-Sep-14 01:00N 32°43' W 117°13'0 0.0
2017-Sep-14 00:29N 32°43' W 117°13'0 0.0
2017-Sep-14 00:00N 32°43' W 117°13'0 0.0
2017-Sep-13 23:30N 32°43' W 117°13'0 0.0
2017-Sep-13 22:57N 32°43' W 117°13'0 0.0
2017-Sep-13 22:30N 32°43' W 117°13'0 0.0
2017-Sep-13 22:00N 32°43' W 117°13'0 0.0
2017-Sep-13 21:29N 32°43' W 117°13'0 0.0
2017-Sep-13 21:00N 32°43' W 117°13'0 0.0
2017-Sep-13 20:28N 32°43' W 117°13'0 0.0
2017-Sep-13 20:00N 32°43' W 117°13'0 0.0
2017-Sep-13 19:26N 32°43' W 117°13'  
Track history (hours):
 
Tides and Currents Weather Stations Pressure Air Temp Water Temp Dewpoint Dewpoint Depression Visibility Wind Speed Wind Dir Waves Ship Positions

Crystal

Owner: Open Oceans LLC, San Diego, CA. More information available from US FCC via Universal Licensing System and Coast Guard Vessel Documentation Center.

Last reported at 2017-Sep-20 17:07 UTC. Time now 2017-Sep-25 15:08 UTC.
Position N 32°39' W 117°07'.

MMSI: 369197000.

Date/timePositionNaut miles runAvg speedWind from/ knotsBaromVisibWave heightAir tempDewpointWater temp
2017-Sep-20 17:07N 32°39' W 117°07'0 0.0
2017-Sep-20 16:54N 32°39' W 117°07'0 0.0
2017-Sep-20 15:11N 32°39' W 117°07'0 0.0
2017-Sep-20 14:51N 32°39' W 117°07'0 0.0
2017-Sep-20 13:12N 32°39' W 117°07'0 0.0
2017-Sep-20 12:57N 32°39' W 117°07'0 0.0
2017-Sep-20 12:09N 32°39' W 117°07'0 0.0
2017-Sep-20 11:58N 32°39' W 117°07'0 0.0
2017-Sep-20 11:30N 32°39' W 117°07'0 0.0
2017-Sep-20 10:53N 32°39' W 117°07'0 0.0
2017-Sep-20 10:03N 32°39' W 117°07'0 0.0
2017-Sep-20 09:37N 32°39' W 117°07'0 0.0
2017-Sep-20 09:14N 32°39' W 117°07'0 0.0
2017-Sep-20 09:00N 32°39' W 117°07'0 0.0
2017-Sep-20 08:07N 32°39' W 117°07'0 0.0
2017-Sep-20 07:59N 32°39' W 117°07'0 0.0
2017-Sep-20 07:30N 32°39' W 117°07'0 0.0
2017-Sep-20 06:57N 32°39' W 117°07'0 0.0
2017-Sep-20 06:27N 32°39' W 117°07'0 0.0
2017-Sep-20 05:11N 32°39' W 117°07'0 0.0
2017-Sep-20 04:57N 32°39' W 117°07'0 0.0
2017-Sep-20 04:28N 32°39' W 117°07'0 0.0
2017-Sep-20 03:58N 32°39' W 117°07'0 0.0
2017-Sep-20 03:30N 32°39' W 117°07'0 0.0
2017-Sep-20 02:52N 32°39' W 117°07'0 0.0
2017-Sep-19 23:46N 32°39' W 117°07'0 0.0
2017-Sep-19 23:28N 32°39' W 117°07'0 0.0
2017-Sep-19 22:55N 32°39' W 117°07'0 0.0
2017-Sep-19 19:46N 32°39' W 117°07'0 0.0
2017-Sep-19 19:29N 32°39' W 117°07'0 0.0
2017-Sep-19 17:52N 32°39' W 117°07'0 0.0
2017-Sep-19 17:27N 32°39' W 117°07'5 4.8
2017-Sep-19 16:22N 32°43' W 117°12'2 0.0
2017-Sep-18 02:56N 32°43' W 117°13'0 0.0
2017-Sep-18 02:30N 32°43' W 117°13'0 0.0
2017-Sep-18 02:00N 32°43' W 117°13'4 8.3
2017-Sep-18 01:31N 32°39' W 117°14'610.9
2017-Sep-18 00:55N 32°33' W 117°17'14 1.2
2017-Sep-17 12:53N 32°36' W 117°33'2 6.5
2017-Sep-17 12:30N 32°36' W 117°30'510.1
2017-Sep-17 12:00N 32°37' W 117°24'510.8
2017-Sep-17 11:30N 32°37' W 117°18'5 9.5
2017-Sep-17 11:00N 32°41' W 117°14'3 5.7
2017-Sep-17 10:30N 32°43' W 117°13'0 0.0
2017-Sep-17 10:00N 32°43' W 117°13'0 0.0
2017-Sep-17 09:30N 32°43' W 117°13'0 0.0
2017-Sep-17 09:00N 32°43' W 117°13'0 0.0
2017-Sep-17 08:30N 32°43' W 117°13'0 0.0
2017-Sep-17 08:00N 32°43' W 117°13'0 0.0
2017-Sep-17 07:30N 32°43' W 117°13'0 0.0
2017-Sep-17 07:00N 32°43' W 117°13'0 0.0
2017-Sep-17 06:30N 32°43' W 117°13'0 0.0
2017-Sep-17 06:00N 32°43' W 117°13'0 0.0
2017-Sep-17 05:30N 32°43' W 117°13'0 0.0
2017-Sep-17 05:00N 32°43' W 117°13'0 0.0
2017-Sep-17 04:30N 32°43' W 117°13'0 0.0
2017-Sep-17 04:00N 32°43' W 117°13'1 1.1
2017-Sep-17 03:30N 32°43' W 117°13'6 9.9
2017-Sep-17 02:55N 32°38' W 117°16'511.2
2017-Sep-17 02:30N 32°37' W 117°22'611.2
2017-Sep-17 02:01N 32°36' W 117°28'5 9.9
2017-Sep-17 01:30N 32°36' W 117°34'4 7.7
2017-Sep-17 01:00N 32°35' W 117°39'2 3.7
2017-Sep-17 00:30N 32°33' W 117°38'4 7.2
2017-Sep-17 00:01N 32°34' W 117°34'3 5.3
2017-Sep-16 23:30N 32°36' W 117°35'4 8.5
2017-Sep-16 23:00N 32°37' W 117°40'4 8.1
2017-Sep-16 22:30N 32°38' W 117°45'2 4.9
2017-Sep-16 22:01N 32°37' W 117°42'1 1.7
2017-Sep-16 21:30N 32°38' W 117°42'1 1.7
2017-Sep-16 21:00N 32°38' W 117°41'1 3.0
2017-Sep-16 20:30N 32°38' W 117°39'2 3.5
2017-Sep-16 20:00N 32°40' W 117°40'3 5.9
2017-Sep-16 19:31N 32°37' W 117°42'3 5.8
2017-Sep-16 19:00N 32°35' W 117°39'2 3.2
2017-Sep-16 18:30N 32°35' W 117°37'2 4.3
2017-Sep-16 18:01N 32°37' W 117°37'2 4.1
2017-Sep-16 17:31N 32°38' W 117°34'3 6.8
2017-Sep-16 17:01N 32°38' W 117°38'2 3.6
2017-Sep-16 16:30N 32°37' W 117°37'3 6.1
2017-Sep-16 16:00N 32°34' W 117°39'3 4.9
2017-Sep-16 15:30N 32°36' W 117°41'2 4.0
2017-Sep-16 15:00N 32°37' W 117°39'1 2.8
2017-Sep-16 14:30N 32°36' W 117°37'0 0.7
2017-Sep-16 14:00N 32°36' W 117°38'1 2.2
2017-Sep-16 13:30N 32°37' W 117°37'4 8.4
2017-Sep-16 13:00N 32°36' W 117°33'510.7
2017-Sep-16 12:31N 32°36' W 117°26'611.1
2017-Sep-16 12:01N 32°37' W 117°20'510.8
2017-Sep-16 11:31N 32°39' W 117°14'3 5.2
2017-Sep-16 11:00N 32°42' W 117°14'2 3.6
2017-Sep-16 10:30N 32°43' W 117°13'0 0.0
2017-Sep-16 10:00N 32°43' W 117°13'0 0.0
2017-Sep-16 09:30N 32°43' W 117°13'0 0.0
2017-Sep-16 09:01N 32°43' W 117°13'0 0.0
2017-Sep-16 08:30N 32°43' W 117°13'0 0.0
2017-Sep-16 08:00N 32°43' W 117°13'0 0.0
2017-Sep-16 07:30N 32°43' W 117°13'0 0.0
2017-Sep-16 06:58N 32°43' W 117°13'0 0.0
2017-Sep-16 06:30N 32°43' W 117°13'0 0.0
2017-Sep-16 06:01N 32°43' W 117°13'0 0.0
2017-Sep-16 05:29N 32°43' W 117°13'0 0.0
2017-Sep-16 04:59N 32°43' W 117°13'0 0.0
2017-Sep-16 04:30N 32°43' W 117°13'0 0.0
2017-Sep-16 03:58N 32°43' W 117°13'0 0.0
2017-Sep-16 03:30N 32°43' W 117°13'0 0.0
2017-Sep-16 03:00N 32°43' W 117°13'0 0.0
2017-Sep-16 02:29N 32°43' W 117°13'0 0.0
2017-Sep-16 01:54N 32°43' W 117°13'0 0.0
2017-Sep-16 01:19N 32°43' W 117°13'0 0.0
2017-Sep-16 00:58N 32°43' W 117°13'0 0.0
2017-Sep-16 00:26N 32°43' W 117°13'0 0.0
2017-Sep-15 19:59N 32°43' W 117°13'0 0.0
2017-Sep-15 18:18N 32°43' W 117°13'0 0.0
2017-Sep-15 17:59N 32°43' W 117°13'0 0.0
2017-Sep-15 17:30N 32°43' W 117°13'0 0.0
2017-Sep-15 16:55N 32°43' W 117°13'0 0.0
2017-Sep-15 16:31N 32°43' W 117°13'0 0.0
2017-Sep-15 16:00N 32°43' W 117°13'0 0.0
2017-Sep-15 15:30N 32°43' W 117°13'0 0.0
2017-Sep-15 15:01N 32°43' W 117°13'0 0.0
2017-Sep-15 14:30N 32°43' W 117°13'0 0.0
2017-Sep-15 14:00N 32°43' W 117°13'0 0.0
2017-Sep-15 13:30N 32°43' W 117°13'0 0.0
2017-Sep-15 13:00N 32°43' W 117°13'0 0.0
2017-Sep-15 12:30N 32°43' W 117°13'0 0.0
2017-Sep-15 12:00N 32°43' W 117°13'0 0.0
2017-Sep-15 11:31N 32°43' W 117°13'0 0.0
2017-Sep-15 10:58N 32°43' W 117°13'0 0.0
2017-Sep-15 10:30N 32°43' W 117°13'0 0.0
2017-Sep-15 09:59N 32°43' W 117°13'0 0.0
2017-Sep-15 09:31N 32°43' W 117°13'0 0.0
2017-Sep-15 09:00N 32°43' W 117°13'0 0.0
2017-Sep-15 08:30N 32°43' W 117°13'0 0.0
2017-Sep-15 07:59N 32°43' W 117°13'0 0.0
2017-Sep-15 07:28N 32°43' W 117°13'0 0.0
2017-Sep-15 06:59N 32°43' W 117°13'0 0.0
2017-Sep-15 06:27N 32°43' W 117°13'0 0.0
2017-Sep-15 06:00N 32°43' W 117°13'0 0.0
2017-Sep-15 05:28N 32°43' W 117°13'0 0.0
2017-Sep-15 05:00N 32°43' W 117°13'0 0.0
2017-Sep-15 04:31N 32°43' W 117°13'0 0.0
2017-Sep-15 03:59N 32°43' W 117°13'0 0.0
2017-Sep-15 03:30N 32°43' W 117°13'0 0.0
2017-Sep-15 03:00N 32°43' W 117°13'0 0.0
2017-Sep-15 02:27N 32°43' W 117°13'0 0.0
2017-Sep-15 02:00N 32°43' W 117°13'0 0.0
2017-Sep-15 01:30N 32°43' W 117°13'0 0.0
2017-Sep-15 00:58N 32°43' W 117°13'0 0.0
2017-Sep-15 00:30N 32°43' W 117°13'0 0.0
2017-Sep-15 00:00N 32°43' W 117°13'0 0.0
2017-Sep-14 23:28N 32°43' W 117°13'0 0.0
2017-Sep-14 22:54N 32°43' W 117°13'0 0.0
2017-Sep-14 22:27N 32°43' W 117°13'0 0.0
2017-Sep-14 21:59N 32°43' W 117°13'0 0.0
2017-Sep-14 21:27N 32°43' W 117°13'0 0.0
2017-Sep-14 21:00N 32°43' W 117°13'0 0.0
2017-Sep-14 20:27N 32°43' W 117°13'0 0.0
2017-Sep-14 20:00N 32°43' W 117°13'0 0.0
2017-Sep-14 19:30N 32°43' W 117°13'0 0.0
2017-Sep-14 18:59N 32°43' W 117°13'0 0.0
2017-Sep-14 18:30N 32°43' W 117°13'0 0.0
2017-Sep-14 17:59N 32°43' W 117°13'0 0.0
2017-Sep-14 17:30N 32°43' W 117°13'0 0.0
2017-Sep-14 17:00N 32°43' W 117°13'0 0.0
2017-Sep-14 16:29N 32°43' W 117°13'0 0.0
2017-Sep-14 16:00N 32°43' W 117°13'0 0.0
2017-Sep-14 15:29N 32°43' W 117°13'0 0.0
2017-Sep-14 15:00N 32°43' W 117°13'0 0.0
2017-Sep-14 14:30N 32°43' W 117°13'0 0.0
2017-Sep-14 14:01N 32°43' W 117°13'0 0.0
2017-Sep-14 13:31N 32°43' W 117°13'0 0.0
2017-Sep-14 13:01N 32°43' W 117°13'0 0.0
2017-Sep-14 12:30N 32°43' W 117°13'0 0.0
2017-Sep-14 12:00N 32°43' W 117°13'0 0.0
2017-Sep-14 11:30N 32°43' W 117°13'0 0.0
2017-Sep-14 11:01N 32°43' W 117°13'0 0.0
2017-Sep-14 10:30N 32°43' W 117°13'0 0.0
2017-Sep-14 10:00N 32°43' W 117°13'0 0.0
2017-Sep-14 09:31N 32°43' W 117°13'0 0.0
2017-Sep-14 08:59N 32°43' W 117°13'0 0.0
2017-Sep-14 08:24N 32°43' W 117°13'0 0.0
2017-Sep-14 07:59N 32°43' W 117°13'0 0.0
2017-Sep-14 07:30N 32°43' W 117°13'0 0.0
2017-Sep-14 07:00N 32°43' W 117°13'0 0.0
2017-Sep-14 06:28N 32°43' W 117°13'0 0.0
2017-Sep-14 06:01N 32°43' W 117°13'0 0.0
2017-Sep-14 05:30N 32°43' W 117°13'0 0.0
2017-Sep-14 04:58N 32°43' W 117°13'0 0.0
2017-Sep-14 04:27N 32°43' W 117°13'0 0.0
2017-Sep-14 04:00N 32°43' W 117°13'0 0.0
2017-Sep-14 03:27N 32°43' W 117°13'0 0.0
2017-Sep-14 03:01N 32°43' W 117°13'0 0.0
2017-Sep-14 02:27N 32°43' W 117°13'0 0.0
2017-Sep-14 02:00N 32°43' W 117°13'0 0.0
2017-Sep-14 01:30N 32°43' W 117°13'0 0.0
2017-Sep-14 01:00N 32°43' W 117°13'0 0.0
2017-Sep-14 00:29N 32°43' W 117°13'0 0.0
2017-Sep-14 00:00N 32°43' W 117°13'0 0.0
2017-Sep-13 23:30N 32°43' W 117°13'0 0.0
2017-Sep-13 22:57N 32°43' W 117°13'0 0.0
2017-Sep-13 22:30N 32°43' W 117°13'0 0.0
2017-Sep-13 22:00N 32°43' W 117°13'0 0.0
2017-Sep-13 21:29N 32°43' W 117°13'0 0.0
2017-Sep-13 21:00N 32°43' W 117°13'0 0.0
2017-Sep-13 20:28N 32°43' W 117°13'0 0.0
2017-Sep-13 20:00N 32°43' W 117°13'0 0.0
2017-Sep-13 19:26N 32°43' W 117°13'  

Dump ship's entire track history